Aérodrome :
LOGIN :

S'inscrire | Disclaimer

   EN    FR    IT 

 










Légende :    VFR   VFR Marginal   IFR   IFR Intensif   IFR Très Intensif
Visi : 
Plafond : 
>= 8 km
>= 3000ft
5 à 8 km
1000 à 3000 ft
1500m à 5 km
500 à 1000 ft
800 à 1500m
200 à 500 ft
< 800m
< 200 ft
Symboles :   Orages  Brouillard  Fortes neiges  Fortes précipitations  Vent > 20 kt
SIGMETs :   Divers  Orages  Givrage  Turbulence  Onde Orograph.  Cendres Volcan.






- Altitude de l'aérodrome : 137 ft


LIPS - Istrana AFB Treviso

DERNIER METAR :
  • 180655Z /////KT 1600 BR BKN030 08/07 Q1023 RMK BKN VIS MIN 1600 WIND THR26 00000KT WIND THR08 00000KT YLO

METARs EXPIRÉS :
  • 180555Z /////KT 1600 BR BKN030 08/07 Q1022 RMK BKN VIS MIN 1600 WIND THR26 00000KT WIND THR08 00000KT YLO
  • 180455Z /////KT 1600 BR SCT010 BKN030 08/06 Q1022 RMK BKN VIS MIN 1600 WIND THR26 00000KT WIND THR08 00000KT YLO

TAF TAF LIPS
Valide du 18 à 06h jusqu'au 18 à 15h UTC


180500Z 1806/1815 05004KT 1500 BR SCT010 BKN040
BECMG 1810/1812 6000 NSW SCT040



MET'MAP, la Météo Aéronautique d'un coup d'oeil ! - Copyright ORBIFLY Décembre 2007 - Disclaimer

ORBIFLY MET'MAP TEAM :

Programmation & Développement : Alexandra Zaïnal
Sur une idée originale de : Baudouin d'Aumeries
Assistance à la programmation : Marc-Olivier Méhu
Soutien technique & logistique : Manuel Goepfert

Contact : metmap@orbifly.com




SOURCES & CREDITS :

   NOAA